createdAt,value
2022-07-28T00:01:26.386Z,99677.38
2022-07-28T00:03:54.362Z,99675.97
2022-07-28T00:06:22.284Z,99674.03
2022-07-28T00:08:51.934Z,99668.91
2022-07-28T00:11:19.895Z,99683.47
2022-07-28T00:13:47.885Z,99683.69
2022-07-28T00:16:16.987Z,99687.38
2022-07-28T00:18:45.911Z,99678.22
2022-07-28T00:21:14.351Z,99678.84
2022-07-28T00:23:42.478Z,99686.22
2022-07-28T00:26:12.710Z,99683.38
2022-07-28T00:28:40.692Z,99692.34
2022-07-28T00:31:09.508Z,99685.97
2022-07-28T00:33:39.024Z,99694.13
2022-07-28T00:36:11.457Z,99690.44
2022-07-28T00:38:44.029Z,99685.84
2022-07-28T00:41:12.997Z,99679.06
2022-07-28T00:43:44.244Z,99686.41
2022-07-28T00:46:14.074Z,99683.44
2022-07-28T00:48:45.575Z,99693.81
2022-07-28T00:51:16.843Z,99691.25
2022-07-28T00:53:45.548Z,99686.06
2022-07-28T00:56:14.469Z,99689.72
2022-07-28T00:58:43.259Z,99688.03
2022-07-28T01:01:16.364Z,99687.69
2022-07-28T01:03:51.412Z,99682.63
2022-07-28T01:06:55.953Z,99693.56
2022-07-28T01:09:52.454Z,99685.19
2022-07-28T01:12:44.855Z,99684.19
2022-07-28T01:15:23.906Z,99690.34
2022-07-28T01:18:10.656Z,99694.00
2022-07-28T01:20:55.269Z,99697.72
2022-07-28T01:23:32.651Z,99700.13
2022-07-28T01:26:19.185Z,99697.44
2022-07-28T01:29:25.101Z,99698.22
2022-07-28T01:32:02.167Z,99699.94
2022-07-28T01:34:50.784Z,99702.78
2022-07-28T01:37:29.886Z,99692.19
2022-07-28T01:40:02.313Z,99701.72
2022-07-28T01:42:42.794Z,99708.47
2022-07-28T01:45:13.808Z,99706.88
2022-07-28T01:47:45.921Z,99699.13
2022-07-28T01:50:17.403Z,99691.56
2022-07-28T01:52:48.276Z,99700.47
2022-07-28T01:55:20.863Z,99696.13
2022-07-28T01:57:52.744Z,99692.63
2022-07-28T02:00:21.150Z,99688.53
2022-07-28T02:02:53.011Z,99687.81
2022-07-28T02:05:24.557Z,99699.09
2022-07-28T02:07:54.253Z,99686.50
2022-07-28T02:10:23.937Z,99689.97
2022-07-28T02:12:56.918Z,99690.72
2022-07-28T02:15:45.484Z,99689.16
2022-07-28T02:18:16.423Z,99696.91
2022-07-28T02:20:44.526Z,99680.88
2022-07-28T02:23:15.358Z,99681.97
2022-07-28T02:25:45.285Z,99684.72
2022-07-28T02:28:14.160Z,99676.06
2022-07-28T02:30:57.416Z,99682.22
2022-07-28T02:33:57.838Z,99673.56
2022-07-28T02:36:29.813Z,99680.53
2022-07-28T02:39:07.128Z,99672.09
2022-07-28T02:41:42.968Z,99676.78
2022-07-28T02:44:18.146Z,99682.78
2022-07-28T02:46:49.267Z,99689.56
2022-07-28T02:49:32.104Z,99685.84
2022-07-28T02:52:04.353Z,99675.97
2022-07-28T02:54:33.799Z,99657.59
2022-07-28T02:57:02.721Z,99674.00
2022-07-28T02:59:32.395Z,99686.28
2022-07-28T03:02:01.204Z,99673.63
2022-07-28T03:04:48.895Z,99681.81
2022-07-28T03:07:17.602Z,99686.75
2022-07-28T03:09:47.659Z,99673.59
2022-07-28T03:12:16.447Z,99685.22
2022-07-28T03:14:44.494Z,99678.84
2022-07-28T03:17:12.918Z,99683.47
2022-07-28T03:19:50.021Z,99666.22
2022-07-28T03:22:20.100Z,99684.41
2022-07-28T03:24:52.047Z,99681.25
2022-07-28T03:27:26.145Z,99687.25
2022-07-28T03:30:03.823Z,99682.75
2022-07-28T03:32:38.066Z,99680.38
2022-07-28T03:35:07.415Z,99679.09
2022-07-28T03:37:55.305Z,99686.94
2022-07-28T03:40:29.698Z,99669.94
2022-07-28T03:43:00.846Z,99681.59
2022-07-28T03:45:28.900Z,99684.59
2022-07-28T03:47:59.326Z,99680.34
2022-07-28T03:50:34.210Z,99677.97
2022-07-28T03:53:05.990Z,99674.47
2022-07-28T03:55:34.020Z,99686.41
2022-07-28T03:58:03.837Z,99690.78
2022-07-28T04:00:31.595Z,99684.63
2022-07-28T04:02:59.624Z,99688.44
2022-07-28T04:05:27.783Z,99678.75
2022-07-28T04:07:55.782Z,99684.44
2022-07-28T04:10:23.797Z,99681.44
2022-07-28T04:12:55.788Z,99693.88
2022-07-28T04:15:25.491Z,99692.81
2022-07-28T04:17:55.366Z,99676.38
2022-07-28T04:20:25.921Z,99688.88
2022-07-28T04:22:55.920Z,99690.53
2022-07-28T04:25:25.216Z,99680.03
2022-07-28T04:27:54.703Z,99680.28
2022-07-28T04:30:25.444Z,99682.19
2022-07-28T04:32:54.983Z,99680.84
2022-07-28T04:35:25.232Z,99684.66
2022-07-28T04:37:56.438Z,99688.41
2022-07-28T04:40:24.911Z,99689.50
2022-07-28T04:42:53.154Z,99690.56
2022-07-28T04:45:21.507Z,99674.63
2022-07-28T04:47:49.661Z,99690.88
2022-07-28T04:50:20.018Z,99678.72
2022-07-28T04:52:50.644Z,99683.63
2022-07-28T04:55:19.417Z,99675.78
2022-07-28T04:57:47.795Z,99681.19
2022-07-28T05:00:16.290Z,99675.25
2022-07-28T05:02:47.027Z,99672.81
2022-07-28T05:05:16.232Z,99672.00
2022-07-28T05:08:02.748Z,99673.09
2022-07-28T05:10:30.954Z,99673.34
2022-07-28T05:12:59.073Z,99667.97
2022-07-28T05:15:27.183Z,99669.06
2022-07-28T05:17:55.383Z,99673.38
2022-07-28T05:20:23.510Z,99661.22
2022-07-28T05:22:54.442Z,99676.63
2022-07-28T05:25:26.208Z,99669.59
2022-07-28T05:27:55.256Z,99668.78
2022-07-28T05:30:23.470Z,99661.75
2022-07-28T05:32:53.824Z,99669.06
2022-07-28T05:35:21.845Z,99669.59
2022-07-28T05:37:49.788Z,99661.75
2022-07-28T05:40:19.798Z,99662.84
2022-07-28T05:42:48.451Z,99659.88
2022-07-28T05:45:17.795Z,99671.50
2022-07-28T05:47:54.108Z,99672.03
2022-07-28T05:50:26.836Z,99668.22
2022-07-28T05:52:54.827Z,99665.19
2022-07-28T05:55:23.867Z,99671.13
2022-07-28T05:57:52.044Z,99666.81
2022-07-28T06:00:22.975Z,99669.50
2022-07-28T06:02:53.527Z,99658.69
2022-07-28T06:05:24.351Z,99655.38
2022-07-28T06:07:52.887Z,99658.56
2022-07-28T06:10:23.533Z,99659.31
2022-07-28T06:12:55.117Z,99657.66
2022-07-28T06:15:26.340Z,99657.34
2022-07-28T06:17:57.898Z,99640.34
2022-07-28T06:20:28.619Z,99647.63
2022-07-28T06:22:56.977Z,99656.47
2022-07-28T06:25:31.892Z,99651.59
2022-07-28T06:28:03.780Z,99652.91
2022-07-28T06:30:32.604Z,99648.63
2022-07-28T06:33:00.809Z,99637.59
2022-07-28T06:35:28.777Z,99641.41
2022-07-28T06:37:56.633Z,99646.22
2022-07-28T06:40:25.167Z,99650.25
2022-07-28T06:42:53.245Z,99631.59
2022-07-28T06:45:22.013Z,99626.19
2022-07-28T06:47:54.284Z,99648.69
2022-07-28T06:50:26.430Z,99642.69
2022-07-28T06:52:59.416Z,99624.78
2022-07-28T06:55:35.244Z,99593.84
2022-07-28T06:58:05.734Z,99630.09
2022-07-28T07:00:35.365Z,99632.50
2022-07-28T07:03:03.490Z,99639.78
2022-07-28T07:05:32.926Z,99634.66
2022-07-28T07:08:02.414Z,99634.66
2022-07-28T07:10:30.521Z,99635.47
2022-07-28T07:12:58.574Z,99634.88
2022-07-28T07:15:26.787Z,99621.06
2022-07-28T07:17:54.912Z,99632.19
2022-07-28T07:20:23.009Z,99629.50
2022-07-28T07:22:51.559Z,99619.25
2022-07-28T07:25:20.666Z,99630.63
2022-07-28T07:27:51.437Z,99620.09
2022-07-28T07:30:22.829Z,99634.69
2022-07-28T07:32:51.042Z,99629.31
2022-07-28T07:35:19.888Z,99626.06
2022-07-28T07:37:48.722Z,99626.13
2022-07-28T07:40:16.824Z,99628.28
2022-07-28T07:42:44.841Z,99621.56
2022-07-28T07:45:13.244Z,99620.72
2022-07-28T07:47:41.571Z,99626.66
2022-07-28T07:50:09.973Z,99594.53
2022-07-28T07:52:39.110Z,99615.94
2022-07-28T07:55:07.862Z,99619.44
2022-07-28T07:57:35.952Z,99618.09
2022-07-28T08:00:06.757Z,99606.50
2022-07-28T08:02:34.821Z,99610.53
2022-07-28T08:05:02.883Z,99609.13
2022-07-28T08:07:31.737Z,99609.09
2022-07-28T08:10:00.329Z,99598.06
2022-07-28T08:12:28.756Z,99609.16
2022-07-28T08:14:57.025Z,99601.63
2022-07-28T08:17:26.252Z,99607.31
2022-07-28T08:19:55.441Z,99609.25
2022-07-28T08:22:24.167Z,99607.44
2022-07-28T08:24:52.932Z,99611.22
2022-07-28T08:27:20.995Z,99607.91
2022-07-28T08:29:49.421Z,99606.50
2022-07-28T08:32:19.158Z,99603.75
2022-07-28T08:34:47.340Z,99618.53
2022-07-28T08:37:15.628Z,99616.31
2022-07-28T08:39:43.800Z,99592.69
2022-07-28T08:42:41.071Z,99600.28
2022-07-28T08:45:12.587Z,99576.06
2022-07-28T08:47:58.881Z,99607.66
2022-07-28T08:50:32.847Z,99605.66
2022-07-28T08:53:02.145Z,99622.94
2022-07-28T08:55:31.617Z,99606.19
2022-07-28T08:58:01.324Z,99619.69
2022-07-28T09:00:29.844Z,99615.09
2022-07-28T09:02:58.354Z,99605.09
2022-07-28T09:05:26.678Z,99609.22
2022-07-28T09:07:58.502Z,99606.84
2022-07-28T09:10:26.977Z,99610.72
2022-07-28T09:12:56.732Z,99615.84
2022-07-28T09:15:34.066Z,99607.09
2022-07-28T09:18:04.881Z,99612.97
2022-07-28T09:20:33.204Z,99604.03
2022-07-28T09:23:04.311Z,99612.66
2022-07-28T09:25:34.307Z,99614.50
2022-07-28T09:28:16.619Z,99614.22
2022-07-28T09:30:54.088Z,99623.91
2022-07-28T09:33:41.984Z,99610.13
2022-07-28T09:36:20.599Z,99619.34
2022-07-28T09:38:48.788Z,99598.91
2022-07-28T09:41:19.411Z,99607.28
2022-07-28T09:43:53.918Z,99603.22
2022-07-28T09:46:25.754Z,99607.50
2022-07-28T09:49:07.552Z,99609.88
2022-07-28T09:51:37.911Z,99599.00
2022-07-28T09:54:11.170Z,99612.97
2022-07-28T09:56:41.668Z,99613.25
2022-07-28T09:59:09.861Z,99622.94
2022-07-28T10:02:01.762Z,99613.78
2022-07-28T10:04:38.691Z,99606.53
2022-07-28T10:07:14.567Z,99613.88
2022-07-28T10:09:42.983Z,99609.13
2022-07-28T10:12:24.554Z,99601.22
2022-07-28T10:14:54.707Z,99596.34
2022-07-28T10:17:41.021Z,99607.00
2022-07-28T10:20:30.644Z,99608.06
2022-07-28T10:23:07.343Z,99609.88
2022-07-28T10:25:36.400Z,99598.75
2022-07-28T10:28:05.816Z,99600.06
2022-07-28T10:30:44.196Z,99595.97
2022-07-28T10:33:16.753Z,99594.84
2022-07-28T10:35:55.206Z,99596.47
2022-07-28T10:38:42.629Z,99601.31
2022-07-28T10:41:13.735Z,99599.91
2022-07-28T10:43:45.530Z,99606.91
2022-07-28T10:46:16.605Z,99601.44
2022-07-28T10:48:45.759Z,99605.44
2022-07-28T10:51:23.774Z,99601.66
2022-07-28T10:54:30.424Z,99611.28
2022-07-28T10:57:01.050Z,99610.19
2022-07-28T10:59:58.307Z,99605.53
2022-07-28T11:02:46.695Z,99604.66
2022-07-28T11:05:30.762Z,99606.78
2022-07-28T11:08:04.123Z,99602.22
2022-07-28T11:10:46.301Z,99594.41
2022-07-28T11:13:29.010Z,99607.84
2022-07-28T11:16:16.350Z,99606.22
2022-07-28T11:19:04.644Z,99608.34
2022-07-28T11:21:39.837Z,99607.78
2022-07-28T11:24:09.143Z,99605.34
2022-07-28T11:26:46.211Z,99594.34
2022-07-28T11:29:14.898Z,99596.22
2022-07-28T11:31:45.875Z,99596.47
2022-07-28T11:34:18.906Z,99596.72
2022-07-28T11:36:59.696Z,99598.03
2022-07-28T11:39:42.821Z,99596.09
2022-07-28T11:42:36.421Z,99597.72
2022-07-28T11:45:37.725Z,99603.38
2022-07-28T11:48:16.628Z,99588.53
2022-07-28T11:51:05.510Z,99595.25
2022-07-28T11:53:40.570Z,99586.63
2022-07-28T11:56:12.403Z,99589.81
2022-07-28T11:58:41.530Z,99591.13
2022-07-28T12:01:21.874Z,99593.25
2022-07-28T12:03:56.154Z,99576.81
2022-07-28T12:06:28.515Z,99577.06
2022-07-28T12:09:03.669Z,99579.38
2022-07-28T12:11:37.543Z,99578.19
2022-07-28T12:14:25.034Z,99579.03
2022-07-28T12:16:53.425Z,99576.34
2022-07-28T12:19:21.881Z,99579.81
2022-07-28T12:21:53.365Z,99589.19
2022-07-28T12:24:31.347Z,99587.25
2022-07-28T12:27:02.908Z,99589.00
2022-07-28T12:29:35.685Z,99584.31
2022-07-28T12:32:07.302Z,99583.25
2022-07-28T12:34:40.745Z,99584.50
2022-07-28T12:37:11.395Z,99585.72
2022-07-28T12:39:42.957Z,99606.16
2022-07-28T12:42:14.322Z,99589.47
2022-07-28T12:44:51.835Z,99596.72
2022-07-28T12:47:28.723Z,99600.97
2022-07-28T12:50:14.642Z,99589.84
2022-07-28T12:52:44.767Z,99603.34
2022-07-28T12:55:27.671Z,99606.28
2022-07-28T12:57:56.070Z,99602.78
2022-07-28T13:00:31.549Z,99600.03
2022-07-28T13:03:02.371Z,99612.06
2022-07-28T13:05:31.332Z,99607.44
2022-07-28T13:08:09.092Z,99607.91
2022-07-28T13:10:48.791Z,99605.94
2022-07-28T13:13:23.674Z,99600.50
2022-07-28T13:16:13.599Z,99605.31
2022-07-28T13:18:48.986Z,99605.19
2022-07-28T13:21:17.309Z,99603.81
2022-07-28T13:23:46.131Z,99600.56
2022-07-28T13:26:14.474Z,99612.59
2022-07-28T13:28:42.464Z,99605.03
2022-07-28T13:31:10.711Z,99593.31
2022-07-28T13:33:41.984Z,99591.38
2022-07-28T13:36:10.134Z,99578.34
2022-07-28T13:38:38.552Z,99610.72
2022-07-28T13:41:08.143Z,99604.72
2022-07-28T13:43:36.658Z,99581.63
2022-07-28T13:46:05.041Z,99609.03
2022-07-28T13:48:34.457Z,99607.47
2022-07-28T13:51:03.032Z,99595.38
2022-07-28T13:53:31.014Z,99609.63
2022-07-28T13:56:05.593Z,99595.56
2022-07-28T13:58:34.306Z,99593.06
2022-07-28T14:01:03.812Z,99604.34
2022-07-28T14:03:56.888Z,99605.41
2022-07-28T14:06:22.669Z,99603.63
2022-07-28T14:08:53.259Z,99610.63
2022-07-28T14:11:23.836Z,99605.50
2022-07-28T14:13:52.731Z,99603.31
2022-07-28T14:16:23.945Z,99581.97
2022-07-28T14:18:52.446Z,99603.38
2022-07-28T14:21:20.536Z,99595.19
2022-07-28T14:23:50.163Z,99619.88
2022-07-28T14:26:35.600Z,99621.47
2022-07-28T14:29:11.552Z,99611.03
2022-07-28T14:31:40.842Z,99624.03
2022-07-28T14:34:11.031Z,99623.53
2022-07-28T14:36:41.183Z,99599.75
2022-07-28T14:39:12.583Z,99617.44
2022-07-28T14:41:43.436Z,99612.81
2022-07-28T14:44:17.868Z,99614.97
2022-07-28T14:46:52.497Z,99615.03
2022-07-28T14:49:21.621Z,99614.31
2022-07-28T14:51:51.125Z,99600.22
2022-07-28T14:54:19.387Z,99613.88
2022-07-28T14:56:47.587Z,99612.09
2022-07-28T14:59:16.468Z,99610.34
2022-07-28T15:01:44.674Z,99595.94
2022-07-28T15:04:14.392Z,99607.88
2022-07-28T15:06:42.537Z,99609.19
2022-07-28T15:09:13.572Z,99598.84
2022-07-28T15:11:50.918Z,99595.56
2022-07-28T15:14:21.672Z,99601.53
2022-07-28T15:16:50.617Z,99605.28
2022-07-28T15:19:19.267Z,99611.56
2022-07-28T15:21:48.311Z,99603.00
2022-07-28T15:24:17.072Z,99599.78
2022-07-28T15:26:45.450Z,99578.34
2022-07-28T15:29:23.516Z,99589.81
2022-07-28T15:31:58.524Z,99602.72
2022-07-28T15:34:27.337Z,99594.81
2022-07-28T15:36:57.194Z,99565.59
2022-07-28T15:39:30.952Z,99602.22
2022-07-28T15:42:01.098Z,99586.09
2022-07-28T15:44:30.582Z,99606.97
2022-07-28T15:47:12.935Z,99583.66
2022-07-28T15:50:45.903Z,99603.78
2022-07-28T15:53:20.288Z,99599.09
2022-07-28T15:55:51.262Z,99602.59
2022-07-28T15:58:21.678Z,99602.41
2022-07-28T16:01:08.376Z,99605.50
2022-07-28T16:03:36.709Z,99592.03
2022-07-28T16:06:04.745Z,99590.00
2022-07-28T16:08:32.861Z,99605.56
2022-07-28T16:11:01.195Z,99598.59
2022-07-28T16:13:35.924Z,99600.25
2022-07-28T16:16:14.445Z,99583.88
2022-07-28T16:18:44.450Z,99583.69
2022-07-28T16:21:12.650Z,99585.31
2022-07-28T16:23:40.864Z,99587.16
2022-07-28T16:26:09.892Z,99578.59
2022-07-28T16:28:39.141Z,99590.44
2022-07-28T16:31:07.376Z,99591.28
2022-07-28T16:33:35.562Z,99564.03
2022-07-28T16:36:04.776Z,99582.84
2022-07-28T16:38:33.896Z,99582.84
2022-07-28T16:41:03.645Z,99570.59
2022-07-28T16:43:53.224Z,99545.03
2022-07-28T16:46:22.849Z,99576.72
2022-07-28T16:48:51.208Z,99573.84
2022-07-28T16:51:19.375Z,99570.38
2022-07-28T16:53:50.656Z,99577.13
2022-07-28T16:56:18.978Z,99585.94
2022-07-28T16:58:48.005Z,99589.59
2022-07-28T17:01:16.917Z,99572.22
2022-07-28T17:03:47.817Z,99573.03
2022-07-28T17:06:16.821Z,99588.16
2022-07-28T17:08:44.936Z,99553.72
2022-07-28T17:11:13.961Z,99583.25
2022-07-28T17:13:47.101Z,99580.16
2022-07-28T17:16:15.353Z,99590.94
2022-07-28T17:18:43.574Z,99588.06
2022-07-28T17:21:13.287Z,99587.66
2022-07-28T17:23:43.102Z,99596.03
2022-07-28T17:28:59.961Z,99580.66
2022-07-28T17:31:28.441Z,99585.75
2022-07-28T17:34:02.281Z,99574.84
2022-07-28T17:36:46.441Z,99556.59
2022-07-28T17:39:15.710Z,99589.72
2022-07-28T17:41:44.701Z,99581.13
2022-07-28T17:44:12.872Z,99570.03
2022-07-28T17:46:41.952Z,99518.19
2022-07-28T17:49:11.014Z,99595.97
2022-07-28T17:51:39.272Z,99592.25
2022-07-28T17:54:07.396Z,99554.13
2022-07-28T17:56:38.354Z,99571.78
2022-07-28T17:59:09.060Z,99591.03
2022-07-28T18:01:38.969Z,99589.16
2022-07-28T18:04:10.383Z,99603.63
2022-07-28T18:06:41.069Z,99593.38
2022-07-28T18:09:14.153Z,99597.59
2022-07-28T18:11:56.619Z,99593.06
2022-07-28T18:14:30.234Z,99568.88
2022-07-28T18:17:00.035Z,99600.75
2022-07-28T18:19:29.386Z,99597.03
2022-07-28T18:21:57.579Z,99592.31
2022-07-28T18:24:28.969Z,99598.00
2022-07-28T18:26:57.453Z,99594.91
2022-07-28T18:29:26.620Z,99558.44
2022-07-28T18:32:09.798Z,99596.69
2022-07-28T18:34:39.861Z,99597.91
2022-07-28T18:37:07.849Z,99597.44
2022-07-28T18:39:35.930Z,99587.41
2022-07-28T18:42:04.173Z,99581.84
2022-07-28T18:44:33.545Z,99589.19
2022-07-28T18:47:02.461Z,99585.06
2022-07-28T18:49:37.276Z,99579.72
2022-07-28T18:52:21.696Z,99579.09
2022-07-28T18:54:53.088Z,99575.00
2022-07-28T18:57:21.144Z,99578.84
2022-07-28T18:59:52.400Z,99565.28
2022-07-28T19:02:20.664Z,99572.47
2022-07-28T19:04:49.020Z,99568.38
2022-07-28T19:07:17.071Z,99561.56
2022-07-28T19:09:45.110Z,99563.59
2022-07-28T19:12:13.185Z,99578.19
2022-07-28T19:14:41.600Z,99553.44
2022-07-28T19:17:10.010Z,99568.94
2022-07-28T19:19:38.307Z,99566.88
2022-07-28T19:22:10.683Z,99570.34
2022-07-28T19:24:39.812Z,99543.47
2022-07-28T19:27:07.940Z,99517.06
2022-07-28T19:29:36.598Z,99535.03
2022-07-28T19:32:05.231Z,99566.09
2022-07-28T19:34:35.923Z,99540.69
2022-07-28T19:37:04.218Z,99555.63
2022-07-28T19:39:35.121Z,99531.03
2022-07-28T19:42:03.278Z,99553.81
2022-07-28T19:44:32.419Z,99556.00
2022-07-28T19:47:02.545Z,99532.69
2022-07-28T19:49:30.546Z,99515.06
2022-07-28T19:51:58.683Z,99513.91
2022-07-28T19:54:27.476Z,99533.31
2022-07-28T19:56:55.667Z,99533.06
2022-07-28T19:59:24.391Z,99527.28
2022-07-28T20:01:52.481Z,99527.03
2022-07-28T20:04:24.244Z,99511.44
2022-07-28T20:06:55.644Z,99515.63
2022-07-28T20:09:24.282Z,99519.91
2022-07-28T20:11:52.922Z,99480.38
2022-07-28T20:14:21.147Z,99519.47
2022-07-28T20:16:49.213Z,99497.97
2022-07-28T20:19:17.508Z,99521.41
2022-07-28T20:21:45.597Z,99504.81
2022-07-28T20:24:15.274Z,99513.13
2022-07-28T20:26:43.908Z,99504.84
2022-07-28T20:29:12.026Z,99505.19
2022-07-28T20:31:40.131Z,99516.03
2022-07-28T20:34:08.492Z,99526.06
2022-07-28T20:36:36.570Z,99509.41
2022-07-28T20:39:21.019Z,99485.59
2022-07-28T20:41:52.850Z,99481.56
2022-07-28T20:44:29.690Z,99520.59
2022-07-28T20:47:03.143Z,99517.22
2022-07-28T20:49:31.429Z,99520.03
2022-07-28T20:52:00.585Z,99511.84
2022-07-28T20:54:28.632Z,99493.50
2022-07-28T20:56:56.884Z,99514.50
2022-07-28T20:59:28.557Z,99525.06
2022-07-28T21:01:57.422Z,99514.84
2022-07-28T21:04:27.000Z,99517.19
2022-07-28T21:07:01.753Z,99497.50
2022-07-28T21:09:30.918Z,99523.13
2022-07-28T21:11:58.898Z,99514.19
2022-07-28T21:14:26.956Z,99523.41
2022-07-28T21:16:55.314Z,99521.09
2022-07-28T21:19:23.572Z,99512.09
2022-07-28T21:21:51.739Z,99508.06
2022-07-28T21:24:19.779Z,99527.88
2022-07-28T21:26:50.353Z,99516.66
2022-07-28T21:32:04.206Z,99530.22
2022-07-28T21:34:35.744Z,99525.13
2022-07-28T21:37:05.505Z,99522.56
2022-07-28T21:39:34.809Z,99506.97
2022-07-28T21:42:05.798Z,99526.31
2022-07-28T21:44:36.590Z,99508.25
2022-07-28T21:47:05.335Z,99524.84
2022-07-28T21:49:33.415Z,99526.47
2022-07-28T21:52:01.426Z,99502.31
2022-07-28T21:54:30.335Z,99522.91
2022-07-28T21:56:58.704Z,99524.59
2022-07-28T21:59:26.721Z,99522.69
2022-07-28T22:01:54.975Z,99510.75
2022-07-28T22:04:25.828Z,99502.88
2022-07-28T22:06:54.052Z,99509.63
2022-07-28T22:09:22.109Z,99512.63
2022-07-28T22:11:50.194Z,99520.84
2022-07-28T22:14:18.644Z,99502.97
2022-07-28T22:16:47.312Z,99517.72
2022-07-28T22:19:15.381Z,99511.81
2022-07-28T22:21:43.661Z,99509.63
2022-07-28T22:24:12.070Z,99501.78
2022-07-28T22:26:40.315Z,99522.19
2022-07-28T22:29:08.326Z,99520.56
2022-07-28T22:31:36.420Z,99523.19
2022-07-28T22:34:06.914Z,99517.00
2022-07-28T22:36:34.936Z,99524.19
2022-07-28T22:39:02.908Z,99523.19
2022-07-28T22:41:30.951Z,99504.13
2022-07-28T22:43:59.101Z,99503.31
2022-07-28T22:46:27.242Z,99494.47
2022-07-28T22:48:55.916Z,99513.53
2022-07-28T22:51:24.022Z,99514.53
2022-07-28T22:53:52.309Z,99517.97
2022-07-28T22:56:20.464Z,99504.84
2022-07-28T22:58:49.333Z,99507.59
2022-07-28T23:01:20.356Z,99498.03
2022-07-28T23:03:48.579Z,99518.38
2022-07-28T23:06:17.230Z,99509.09
2022-07-28T23:08:45.190Z,99509.56
2022-07-28T23:11:14.608Z,99514.47
2022-07-28T23:13:44.306Z,99512.84
2022-07-28T23:16:14.514Z,99523.63
2022-07-28T23:18:44.847Z,99511.34
2022-07-28T23:21:13.447Z,99513.44
2022-07-28T23:23:41.536Z,99510.09
2022-07-28T23:26:09.591Z,99494.41
2022-07-28T23:28:37.693Z,99517.50
2022-07-28T23:31:06.463Z,99517.03
2022-07-28T23:33:55.751Z,99503.94
2022-07-28T23:36:26.476Z,99511.66
2022-07-28T23:38:59.899Z,99519.00
2022-07-28T23:41:28.742Z,99518.53
2022-07-28T23:43:56.749Z,99503.94
2022-07-28T23:46:24.824Z,99513.09
2022-07-28T23:48:54.277Z,99509.13
2022-07-28T23:51:46.781Z,99505.72
2022-07-28T23:54:14.450Z,99502.25
2022-07-28T23:56:43.700Z,99507.69
2022-07-28T23:59:14.383Z,99514.31
